createdAt,value
2022-10-03T00:00:39.057Z,10.90
2022-10-03T00:02:15.903Z,10.90
2022-10-03T00:03:33.938Z,11.00
2022-10-03T00:04:50.880Z,11.00
2022-10-03T00:06:03.838Z,11.00
2022-10-03T00:07:18.042Z,11.00
2022-10-03T00:08:32.260Z,11.10
2022-10-03T00:09:47.202Z,11.10
2022-10-03T00:11:02.979Z,11.10
2022-10-03T00:12:19.495Z,11.10
2022-10-03T00:13:27.582Z,11.10
2022-10-03T00:14:41.288Z,11.20
2022-10-03T00:15:50.012Z,11.30
2022-10-03T00:17:02.485Z,11.30
2022-10-03T00:18:15.122Z,11.20
2022-10-03T00:19:29.585Z,11.20
2022-10-03T00:20:45.622Z,11.30
2022-10-03T00:22:01.879Z,11.30
2022-10-03T00:23:10.211Z,11.40
2022-10-03T00:24:24.898Z,11.40
2022-10-03T00:25:38.536Z,11.30
2022-10-03T00:26:50.565Z,11.40
2022-10-03T00:28:04.989Z,11.40
2022-10-03T00:29:40.173Z,11.40
2022-10-03T00:30:56.658Z,11.40
2022-10-03T00:32:12.277Z,11.40
2022-10-03T00:33:26.654Z,11.40
2022-10-03T00:34:39.988Z,11.40
2022-10-03T00:35:56.300Z,11.40
2022-10-03T00:37:14.369Z,11.40
2022-10-03T00:38:34.290Z,11.40
2022-10-03T00:39:53.512Z,11.40
2022-10-03T00:41:17.254Z,11.40
2022-10-03T00:42:46.012Z,11.50
2022-10-03T00:44:27.134Z,11.40
2022-10-03T00:46:23.558Z,11.40
2022-10-03T00:47:59.246Z,11.40
2022-10-03T00:49:40.013Z,11.40
2022-10-03T00:51:05.203Z,11.40
2022-10-03T00:52:30.049Z,11.40
2022-10-03T00:53:48.256Z,11.40
2022-10-03T00:55:04.075Z,11.40
2022-10-03T00:56:34.548Z,11.40
2022-10-03T00:57:55.245Z,11.40
2022-10-03T00:59:15.348Z,11.40
2022-10-03T01:00:21.060Z,11.50
2022-10-03T01:01:34.376Z,11.40
2022-10-03T01:02:49.439Z,11.40
2022-10-03T01:04:03.704Z,11.40
2022-10-03T01:05:15.269Z,11.40
2022-10-03T01:06:30.570Z,11.40
2022-10-03T01:08:09.904Z,11.30
2022-10-03T01:09:33.116Z,11.40
2022-10-03T01:10:44.492Z,11.30
2022-10-03T01:12:01.741Z,11.20
2022-10-03T01:13:19.670Z,11.30
2022-10-03T01:14:33.265Z,11.30
2022-10-03T01:15:46.971Z,11.30
2022-10-03T01:17:01.175Z,11.30
2022-10-03T01:18:21.190Z,11.30
2022-10-03T01:19:49.424Z,11.30
2022-10-03T01:21:02.534Z,11.30
2022-10-03T01:22:24.914Z,11.30
2022-10-03T01:23:47.442Z,11.20
2022-10-03T01:24:58.519Z,11.30
2022-10-03T01:26:13.541Z,11.30
2022-10-03T01:27:22.838Z,11.30
2022-10-03T01:28:58.344Z,11.20
2022-10-03T01:30:23.043Z,11.30
2022-10-03T01:31:33.049Z,11.30
2022-10-03T01:32:42.760Z,11.30
2022-10-03T01:33:52.500Z,11.40
2022-10-03T01:35:03.867Z,11.40
2022-10-03T01:36:12.360Z,11.40
2022-10-03T01:37:23.660Z,11.40
2022-10-03T01:38:34.747Z,11.40
2022-10-03T01:39:44.157Z,11.40
2022-10-03T01:40:52.004Z,11.40
2022-10-03T01:42:01.571Z,11.40
2022-10-03T01:43:12.067Z,11.40
2022-10-03T01:44:20.825Z,11.40
2022-10-03T01:45:30.691Z,11.40
2022-10-03T01:46:39.363Z,11.40
2022-10-03T01:47:51.846Z,11.40
2022-10-03T01:49:01.915Z,11.40
2022-10-03T01:50:14.042Z,11.40
2022-10-03T01:51:22.934Z,11.50
2022-10-03T01:52:37.110Z,11.40
2022-10-03T01:53:58.862Z,11.40
2022-10-03T01:55:08.155Z,11.40
2022-10-03T01:56:20.183Z,11.50
2022-10-03T01:57:35.202Z,11.50
2022-10-03T01:58:50.331Z,11.50
2022-10-03T02:00:00.733Z,11.50
2022-10-03T02:01:10.746Z,11.50
2022-10-03T02:02:21.393Z,11.40
2022-10-03T02:03:29.424Z,11.50
2022-10-03T02:04:42.677Z,11.50
2022-10-03T02:05:54.389Z,11.50
2022-10-03T02:07:06.417Z,11.50
2022-10-03T02:08:17.858Z,11.50
2022-10-03T02:09:35.250Z,11.50
2022-10-03T02:10:46.022Z,11.50
2022-10-03T02:12:02.808Z,11.50
2022-10-03T02:13:12.855Z,11.50
2022-10-03T02:14:23.172Z,11.50
2022-10-03T02:15:32.964Z,11.50
2022-10-03T02:16:43.996Z,11.50
2022-10-03T02:17:56.825Z,11.50
2022-10-03T02:19:06.315Z,11.40
2022-10-03T02:20:20.941Z,11.40
2022-10-03T02:21:26.933Z,11.50
2022-10-03T02:22:33.413Z,11.50
2022-10-03T02:23:45.299Z,11.50
2022-10-03T02:24:55.804Z,11.50
2022-10-03T02:26:15.858Z,11.50
2022-10-03T02:27:52.689Z,11.40
2022-10-03T02:29:14.681Z,11.50
2022-10-03T02:30:21.267Z,11.50
2022-10-03T02:31:57.196Z,11.50
2022-10-03T02:33:35.603Z,11.50
2022-10-03T02:35:03.151Z,11.50
2022-10-03T02:36:39.623Z,11.50
2022-10-03T02:37:58.367Z,11.50
2022-10-03T02:39:24.127Z,11.50
2022-10-03T02:41:15.207Z,11.60
2022-10-03T02:42:52.385Z,11.50
2022-10-03T02:44:19.766Z,11.50
2022-10-03T02:45:46.726Z,11.50
2022-10-03T02:47:19.257Z,11.50
2022-10-03T02:48:50.641Z,11.60
2022-10-03T02:50:14.552Z,11.60
2022-10-03T02:51:51.395Z,11.60
2022-10-03T02:53:24.813Z,11.60
2022-10-03T02:54:54.779Z,11.60
2022-10-03T02:56:38.849Z,11.60
2022-10-03T02:58:17.379Z,11.60
2022-10-03T03:00:04.384Z,11.60
2022-10-03T03:01:32.443Z,11.60
2022-10-03T03:03:10.878Z,11.60
2022-10-03T03:04:41.625Z,11.70
2022-10-03T03:06:24.137Z,11.70
2022-10-03T03:07:43.414Z,11.70
2022-10-03T03:09:02.817Z,11.70
2022-10-03T03:10:48.682Z,11.70
2022-10-03T03:12:27.510Z,11.60
2022-10-03T03:14:09.740Z,11.70
2022-10-03T03:15:47.449Z,11.60
2022-10-03T03:16:58.721Z,11.60
2022-10-03T03:18:12.451Z,11.70
2022-10-03T03:19:26.450Z,11.70
2022-10-03T03:20:51.239Z,11.70
2022-10-03T03:22:05.553Z,11.60
2022-10-03T03:23:50.600Z,11.70
2022-10-03T03:25:08.717Z,11.70
2022-10-03T03:26:40.505Z,11.70
2022-10-03T03:27:52.223Z,11.70
2022-10-03T03:29:05.165Z,11.70
2022-10-03T03:30:12.607Z,11.70
2022-10-03T03:31:18.836Z,11.70
2022-10-03T03:32:37.371Z,11.70
2022-10-03T03:33:55.525Z,11.70
2022-10-03T03:35:11.090Z,11.70
2022-10-03T03:36:26.529Z,11.80
2022-10-03T03:37:36.914Z,11.70
2022-10-03T03:38:48.732Z,11.70
2022-10-03T03:40:08.064Z,11.70
2022-10-03T03:41:30.231Z,11.70
2022-10-03T03:42:53.826Z,11.70
2022-10-03T03:44:21.731Z,11.70
2022-10-03T03:45:34.610Z,11.80
2022-10-03T03:46:51.760Z,11.70
2022-10-03T03:48:21.704Z,11.70
2022-10-03T03:49:42.116Z,11.80
2022-10-03T03:50:56.236Z,11.70
2022-10-03T03:52:13.592Z,11.70
2022-10-03T03:53:33.673Z,11.80
2022-10-03T03:55:06.210Z,11.80
2022-10-03T03:56:39.707Z,11.70
2022-10-03T03:58:14.808Z,11.70
2022-10-03T03:59:33.413Z,11.70
2022-10-03T04:00:56.276Z,11.70
2022-10-03T04:02:11.293Z,11.70
2022-10-03T04:03:27.981Z,11.80
2022-10-03T04:04:45.774Z,11.80
2022-10-03T04:06:06.937Z,11.80
2022-10-03T04:07:25.163Z,11.80
2022-10-03T04:08:43.295Z,11.80
2022-10-03T04:10:18.039Z,11.70
2022-10-03T04:11:28.369Z,11.80
2022-10-03T04:12:48.816Z,11.80
2022-10-03T04:14:21.698Z,11.70
2022-10-03T04:15:48.646Z,11.70
2022-10-03T04:17:39.982Z,11.70
2022-10-03T04:18:58.455Z,11.70
2022-10-03T04:20:15.720Z,11.70
2022-10-03T04:21:32.629Z,11.70
2022-10-03T04:23:04.518Z,11.70
2022-10-03T04:24:25.532Z,11.70
2022-10-03T04:25:55.618Z,11.70
2022-10-03T04:27:13.851Z,11.70
2022-10-03T04:28:36.553Z,11.70
2022-10-03T04:29:48.145Z,11.70
2022-10-03T04:31:05.156Z,11.60
2022-10-03T04:32:15.974Z,11.60
2022-10-03T04:33:33.141Z,11.60
2022-10-03T04:34:49.915Z,11.60
2022-10-03T04:36:31.031Z,11.60
2022-10-03T04:37:41.731Z,11.70
2022-10-03T04:38:55.175Z,11.60
2022-10-03T04:40:10.066Z,11.60
2022-10-03T04:41:27.560Z,11.60
2022-10-03T04:42:43.121Z,11.70
2022-10-03T04:43:53.729Z,11.70
2022-10-03T04:45:11.808Z,11.70
2022-10-03T04:46:23.503Z,11.70
2022-10-03T04:47:32.783Z,11.70
2022-10-03T04:48:39.774Z,11.70
2022-10-03T04:49:48.897Z,11.70
2022-10-03T04:51:07.397Z,11.70
2022-10-03T04:52:20.170Z,11.70
2022-10-03T04:53:36.141Z,11.70
2022-10-03T04:54:51.864Z,11.70
2022-10-03T04:56:00.916Z,11.60
2022-10-03T04:57:15.468Z,11.70
2022-10-03T04:58:28.590Z,11.70
2022-10-03T04:59:41.535Z,11.70
2022-10-03T05:00:52.926Z,11.70
2022-10-03T05:02:02.982Z,11.70
2022-10-03T05:03:13.309Z,11.70
2022-10-03T05:04:30.753Z,11.70
2022-10-03T05:05:51.502Z,11.70
2022-10-03T05:07:04.725Z,11.70
2022-10-03T05:08:19.448Z,11.70
2022-10-03T05:09:27.321Z,11.70
2022-10-03T05:10:45.555Z,11.70
2022-10-03T05:12:00.567Z,11.70
2022-10-03T05:13:12.013Z,11.70
2022-10-03T05:14:31.979Z,11.70
2022-10-03T05:15:41.929Z,11.70
2022-10-03T05:16:55.644Z,11.70
2022-10-03T05:18:11.005Z,11.70
2022-10-03T05:19:47.245Z,11.80
2022-10-03T05:20:55.539Z,11.80
2022-10-03T05:22:03.927Z,11.70
2022-10-03T05:23:19.049Z,11.70
2022-10-03T05:24:29.644Z,11.70
2022-10-03T05:25:43.801Z,11.70
2022-10-03T05:26:54.624Z,11.70
2022-10-03T05:28:06.697Z,11.70
2022-10-03T05:29:18.496Z,11.70
2022-10-03T05:30:34.130Z,11.70
2022-10-03T05:31:47.989Z,11.70
2022-10-03T05:32:54.981Z,11.70
2022-10-03T05:34:05.101Z,11.70
2022-10-03T05:35:25.572Z,11.70
2022-10-03T05:36:36.419Z,11.70
2022-10-03T05:38:04.451Z,11.70
2022-10-03T05:39:27.399Z,11.70
2022-10-03T05:40:33.895Z,11.70
2022-10-03T05:41:39.224Z,11.70
2022-10-03T05:43:02.562Z,11.70
2022-10-03T05:44:12.512Z,11.70
2022-10-03T05:45:26.073Z,11.70
2022-10-03T05:46:42.519Z,11.70
2022-10-03T05:47:51.646Z,11.70
2022-10-03T05:49:05.454Z,11.70
2022-10-03T05:50:49.079Z,11.70
2022-10-03T05:52:17.611Z,11.70
2022-10-03T05:53:53.979Z,11.80
2022-10-03T05:55:13.919Z,11.80
2022-10-03T05:56:26.015Z,11.80
2022-10-03T05:57:49.184Z,11.90
2022-10-03T05:59:23.510Z,11.90
2022-10-03T06:00:39.202Z,11.90
2022-10-03T06:01:59.394Z,11.90
2022-10-03T06:03:24.687Z,11.90
2022-10-03T06:04:53.523Z,11.90
2022-10-03T06:06:08.410Z,11.90
2022-10-03T06:07:21.741Z,11.90
2022-10-03T06:09:06.779Z,11.80
2022-10-03T06:10:27.687Z,11.80
2022-10-03T06:11:59.997Z,11.90
2022-10-03T06:13:20.630Z,11.90
2022-10-03T06:14:34.935Z,11.90
2022-10-03T06:15:54.719Z,11.90
2022-10-03T06:17:13.784Z,12.00
2022-10-03T06:18:47.166Z,12.00
2022-10-03T06:19:55.243Z,12.00
2022-10-03T06:21:20.152Z,12.00
2022-10-03T06:22:44.016Z,12.10
2022-10-03T06:24:28.723Z,12.10
2022-10-03T06:25:55.717Z,12.10
2022-10-03T06:27:46.593Z,12.10
2022-10-03T06:29:23.647Z,12.10
2022-10-03T06:30:46.128Z,12.20
2022-10-03T06:32:15.679Z,12.30
2022-10-03T06:33:55.178Z,12.30
2022-10-03T06:35:26.096Z,12.20
2022-10-03T06:36:42.515Z,12.30
2022-10-03T06:38:17.218Z,12.30
2022-10-03T06:39:44.683Z,12.30
2022-10-03T06:41:26.846Z,12.30
2022-10-03T06:43:00.329Z,12.30
2022-10-03T06:44:22.002Z,12.30
2022-10-03T06:45:56.441Z,12.20
2022-10-03T06:47:26.167Z,12.20
2022-10-03T06:49:02.161Z,12.20
2022-10-03T06:50:35.625Z,12.10
2022-10-03T06:52:02.420Z,12.10
2022-10-03T06:53:26.452Z,12.20
2022-10-03T06:55:04.351Z,12.20
2022-10-03T06:56:40.689Z,12.20
2022-10-03T06:58:12.474Z,12.10
2022-10-03T06:59:43.419Z,12.10
2022-10-03T07:01:05.200Z,12.10
2022-10-03T07:02:35.289Z,12.20
2022-10-03T07:04:07.726Z,12.20
2022-10-03T07:05:41.263Z,12.20
2022-10-03T07:07:17.847Z,12.20
2022-10-03T07:08:45.429Z,12.20
2022-10-03T07:10:19.885Z,12.20
2022-10-03T07:11:56.083Z,12.30
2022-10-03T07:13:26.931Z,12.30
2022-10-03T07:15:14.992Z,12.30
2022-10-03T07:16:43.753Z,12.30
2022-10-03T07:18:16.050Z,12.30
2022-10-03T07:19:35.283Z,12.30
2022-10-03T07:21:06.301Z,12.40
2022-10-03T07:22:27.841Z,12.40
2022-10-03T07:23:52.185Z,12.50
2022-10-03T07:25:24.432Z,12.50
2022-10-03T07:26:59.994Z,12.60
2022-10-03T07:28:28.174Z,12.60
2022-10-03T07:30:03.308Z,12.70
2022-10-03T07:31:13.780Z,12.80
2022-10-03T07:32:59.859Z,12.90
2022-10-03T07:34:36.702Z,12.80
2022-10-03T07:36:08.250Z,12.90
2022-10-03T07:37:46.554Z,12.90
2022-10-03T07:39:31.460Z,12.90
2022-10-03T07:41:20.152Z,12.80
2022-10-03T07:42:57.175Z,12.90
2022-10-03T07:44:36.893Z,12.80
2022-10-03T07:45:45.715Z,12.80
2022-10-03T07:47:30.439Z,12.80
2022-10-03T07:49:08.945Z,12.70
2022-10-03T07:50:53.161Z,12.70
2022-10-03T07:52:22.400Z,12.80
2022-10-03T07:54:12.896Z,12.80
2022-10-03T07:55:31.668Z,12.80
2022-10-03T07:57:00.829Z,12.90
2022-10-03T07:58:44.513Z,13.00
2022-10-03T08:00:24.538Z,13.00
2022-10-03T08:01:43.637Z,13.00
2022-10-03T08:03:32.281Z,13.10
2022-10-03T08:04:59.228Z,13.30
2022-10-03T08:06:16.547Z,13.20
2022-10-03T08:07:39.831Z,13.30
2022-10-03T08:09:04.075Z,13.30
2022-10-03T08:10:22.680Z,13.30
2022-10-03T08:12:00.999Z,13.30
2022-10-03T08:13:25.674Z,13.30
2022-10-03T08:14:40.845Z,13.30
2022-10-03T08:16:00.137Z,13.20
2022-10-03T08:17:47.445Z,13.20
2022-10-03T08:19:21.822Z,13.10
2022-10-03T08:20:44.703Z,13.00
2022-10-03T08:22:06.184Z,13.00
2022-10-03T08:23:30.254Z,13.00
2022-10-03T08:25:06.487Z,13.00
2022-10-03T08:26:17.323Z,13.00
2022-10-03T08:27:44.236Z,13.00
2022-10-03T08:29:02.078Z,13.00
2022-10-03T08:30:21.592Z,13.00
2022-10-03T08:31:52.964Z,13.00
2022-10-03T08:33:05.697Z,13.10
2022-10-03T08:34:28.687Z,13.10
2022-10-03T08:35:59.547Z,13.10
2022-10-03T08:37:34.663Z,13.20
2022-10-03T08:38:58.473Z,13.20
2022-10-03T08:40:44.434Z,13.30
2022-10-03T08:42:26.817Z,13.30
2022-10-03T08:44:04.383Z,13.40
2022-10-03T08:45:44.365Z,13.50
2022-10-03T08:47:11.561Z,13.50
2022-10-03T08:48:54.048Z,13.60
2022-10-03T08:50:26.663Z,13.60
2022-10-03T08:52:08.154Z,13.60
2022-10-03T08:53:41.445Z,13.70
2022-10-03T08:55:26.440Z,13.80
2022-10-03T08:56:47.630Z,13.80
2022-10-03T08:58:20.777Z,13.90
2022-10-03T09:00:09.054Z,13.90
2022-10-03T09:01:51.624Z,13.80
2022-10-03T09:03:49.526Z,13.90
2022-10-03T09:05:12.537Z,13.90
2022-10-03T09:07:16.689Z,13.90
2022-10-03T09:09:00.481Z,13.90
2022-10-03T09:10:40.318Z,13.90
2022-10-03T09:12:20.283Z,14.00
2022-10-03T09:13:52.402Z,14.10
2022-10-03T09:15:15.591Z,14.10
2022-10-03T09:16:42.213Z,14.20
2022-10-03T09:18:27.214Z,14.10
2022-10-03T09:20:32.624Z,14.10
2022-10-03T09:22:22.691Z,14.20
2022-10-03T09:23:47.120Z,14.30
2022-10-03T09:25:11.579Z,14.40
2022-10-03T09:26:35.784Z,14.50
2022-10-03T09:28:10.659Z,14.50
2022-10-03T09:29:45.568Z,14.60
2022-10-03T09:31:03.829Z,14.60
2022-10-03T09:32:36.479Z,14.60
2022-10-03T09:34:22.242Z,14.60
2022-10-03T09:35:46.026Z,14.60
2022-10-03T09:37:31.359Z,14.60
2022-10-03T09:39:05.939Z,14.70
2022-10-03T09:40:53.440Z,14.70
2022-10-03T09:42:44.559Z,14.80
2022-10-03T09:44:18.619Z,14.70
2022-10-03T09:45:37.137Z,14.60
2022-10-03T09:47:17.124Z,14.70
2022-10-03T09:48:47.052Z,14.70
2022-10-03T09:50:21.444Z,14.90
2022-10-03T09:51:39.415Z,14.90
2022-10-03T09:53:02.504Z,15.00
2022-10-03T09:54:50.908Z,15.20
2022-10-03T09:56:19.996Z,15.10
2022-10-03T09:58:02.144Z,15.10
2022-10-03T09:59:19.335Z,15.00
2022-10-03T10:00:25.236Z,15.10
2022-10-03T10:01:35.918Z,15.10
2022-10-03T10:03:35.894Z,15.10
2022-10-03T10:04:57.960Z,15.20
2022-10-03T10:06:25.123Z,15.30
2022-10-03T10:07:45.953Z,15.40
2022-10-03T10:09:18.944Z,15.30
2022-10-03T10:10:55.408Z,15.40
2022-10-03T10:12:23.919Z,15.60
2022-10-03T10:14:08.636Z,15.70
2022-10-03T10:15:35.154Z,15.70
2022-10-03T10:17:09.835Z,15.70
2022-10-03T10:18:41.172Z,15.70
2022-10-03T10:20:05.187Z,15.60
2022-10-03T10:21:45.070Z,15.60
2022-10-03T10:23:09.087Z,15.60
2022-10-03T10:24:52.089Z,15.50
2022-10-03T10:26:30.488Z,15.40
2022-10-03T10:28:02.983Z,15.40
2022-10-03T10:29:32.134Z,15.20
2022-10-03T10:31:21.832Z,15.10
2022-10-03T10:32:57.911Z,15.00
2022-10-03T10:34:49.234Z,15.10
2022-10-03T10:36:27.808Z,15.10
2022-10-03T10:38:03.533Z,15.20
2022-10-03T10:39:49.358Z,15.20
2022-10-03T10:41:39.791Z,15.40
2022-10-03T10:43:37.360Z,15.50
2022-10-03T10:45:11.960Z,15.60
2022-10-03T10:46:47.133Z,15.70
2022-10-03T10:48:21.269Z,15.70
2022-10-03T10:50:03.245Z,15.70
2022-10-03T10:51:36.563Z,15.60
2022-10-03T10:53:30.392Z,15.70
2022-10-03T10:55:03.645Z,15.70
2022-10-03T10:56:27.353Z,15.70
2022-10-03T10:58:12.845Z,15.70
2022-10-03T10:59:58.826Z,15.60
2022-10-03T11:01:48.268Z,15.60
2022-10-03T11:03:39.170Z,15.60
2022-10-03T11:05:29.574Z,15.60
2022-10-03T11:07:20.758Z,15.40
2022-10-03T11:08:54.995Z,15.30
2022-10-03T11:10:31.029Z,15.40
2022-10-03T11:12:07.824Z,15.40
2022-10-03T11:13:58.486Z,15.40
2022-10-03T11:15:36.304Z,15.50
2022-10-03T11:17:12.432Z,15.60
2022-10-03T11:19:07.144Z,15.60
2022-10-03T11:20:49.213Z,15.70
2022-10-03T11:22:29.684Z,15.80
2022-10-03T11:24:19.543Z,15.80
2022-10-03T11:25:53.913Z,15.80
2022-10-03T11:27:30.457Z,15.80
2022-10-03T11:29:12.733Z,15.90
2022-10-03T11:30:28.980Z,15.80
2022-10-03T11:32:16.772Z,15.80
2022-10-03T11:34:01.617Z,15.80
2022-10-03T11:35:32.522Z,15.70
2022-10-03T11:36:57.328Z,15.70
2022-10-03T11:38:06.862Z,15.70
2022-10-03T11:39:18.288Z,15.70
2022-10-03T11:40:41.517Z,15.70
2022-10-03T11:41:56.140Z,15.80
2022-10-03T11:43:34.263Z,15.80
2022-10-03T11:44:42.484Z,15.90
2022-10-03T11:45:51.746Z,16.00
2022-10-03T11:47:33.181Z,16.10
2022-10-03T11:48:42.848Z,16.20
2022-10-03T11:50:19.203Z,16.20
2022-10-03T11:51:33.567Z,16.20
2022-10-03T11:52:43.743Z,16.10
2022-10-03T11:53:52.009Z,16.10
2022-10-03T11:55:18.950Z,16.10
2022-10-03T11:56:40.121Z,16.10
2022-10-03T11:57:52.287Z,16.00
2022-10-03T11:59:18.749Z,16.00
2022-10-03T12:00:24.474Z,15.90
2022-10-03T12:01:47.668Z,15.80
2022-10-03T12:03:10.887Z,15.70
2022-10-03T12:04:23.654Z,15.70
2022-10-03T12:05:38.973Z,15.70
2022-10-03T12:07:17.611Z,15.70
2022-10-03T12:08:46.517Z,15.80
2022-10-03T12:10:02.873Z,15.90
2022-10-03T12:11:11.888Z,16.00
2022-10-03T12:12:28.495Z,16.00
2022-10-03T12:13:39.333Z,16.10
2022-10-03T12:14:46.786Z,16.00
2022-10-03T12:15:54.284Z,16.00
2022-10-03T12:17:07.955Z,16.00
2022-10-03T12:18:18.955Z,16.00
2022-10-03T12:19:39.765Z,15.90
2022-10-03T12:21:07.539Z,15.80
2022-10-03T12:22:24.002Z,15.70
2022-10-03T12:23:51.913Z,15.60
2022-10-03T12:25:01.843Z,15.50
2022-10-03T12:26:08.143Z,15.40
2022-10-03T12:27:21.230Z,15.40
2022-10-03T12:28:26.985Z,15.40
2022-10-03T12:29:37.141Z,15.40
2022-10-03T12:30:48.283Z,15.40
2022-10-03T12:32:06.973Z,15.40
2022-10-03T12:33:28.327Z,15.30
2022-10-03T12:34:41.112Z,15.30
2022-10-03T12:35:51.066Z,15.20
2022-10-03T12:37:32.287Z,15.20
2022-10-03T12:38:50.995Z,15.20
2022-10-03T12:40:05.796Z,15.10
2022-10-03T12:41:24.456Z,15.10
2022-10-03T12:42:31.418Z,15.10
2022-10-03T12:43:46.144Z,15.10
2022-10-03T12:44:56.075Z,15.10
2022-10-03T12:46:04.152Z,15.10
2022-10-03T12:47:50.668Z,15.10
2022-10-03T12:48:56.560Z,15.20
2022-10-03T12:50:06.994Z,15.30
2022-10-03T12:51:19.592Z,15.40
2022-10-03T12:52:27.238Z,15.40
2022-10-03T12:53:38.779Z,15.40
2022-10-03T12:54:49.482Z,15.40
2022-10-03T12:56:13.145Z,15.50
2022-10-03T12:57:48.553Z,15.60
2022-10-03T12:59:07.962Z,15.60
2022-10-03T13:00:20.871Z,15.70
2022-10-03T13:01:36.813Z,15.70
2022-10-03T13:02:43.501Z,15.70
2022-10-03T13:03:53.243Z,15.80
2022-10-03T13:05:21.474Z,15.90
2022-10-03T13:07:09.247Z,16.00
2022-10-03T13:08:12.516Z,16.10
2022-10-03T13:09:23.927Z,16.10
2022-10-03T13:10:35.000Z,16.10
2022-10-03T13:11:47.594Z,16.00
2022-10-03T13:12:55.647Z,16.00
2022-10-03T13:14:11.070Z,15.90
2022-10-03T13:15:41.977Z,15.80
2022-10-03T13:16:59.932Z,15.80
2022-10-03T13:18:13.028Z,15.80
2022-10-03T13:19:19.000Z,15.70
2022-10-03T13:20:28.196Z,15.70
2022-10-03T13:21:48.187Z,15.60
2022-10-03T13:22:58.848Z,15.70
2022-10-03T13:24:07.132Z,15.70
2022-10-03T13:25:19.684Z,15.70
2022-10-03T13:26:39.525Z,15.80
2022-10-03T13:27:46.865Z,15.80
2022-10-03T13:29:17.997Z,15.90
2022-10-03T13:30:26.116Z,16.00
2022-10-03T13:31:32.772Z,16.00
2022-10-03T13:32:38.535Z,16.10
2022-10-03T13:33:45.717Z,16.10
2022-10-03T13:35:29.498Z,16.10
2022-10-03T13:36:38.280Z,16.20
2022-10-03T13:38:04.533Z,16.20
2022-10-03T13:39:18.126Z,16.20
2022-10-03T13:40:20.816Z,16.20
2022-10-03T13:41:32.108Z,16.20
2022-10-03T13:42:40.501Z,16.20
2022-10-03T13:43:49.898Z,16.10
2022-10-03T13:44:55.896Z,16.10
2022-10-03T13:46:00.151Z,16.10
2022-10-03T13:47:15.393Z,16.10
2022-10-03T13:48:20.582Z,16.10
2022-10-03T13:49:32.281Z,16.10
2022-10-03T13:50:39.670Z,16.10
2022-10-03T13:51:49.987Z,16.10
2022-10-03T13:52:56.000Z,16.00
2022-10-03T13:54:03.606Z,15.90
2022-10-03T13:55:28.994Z,15.90
2022-10-03T13:56:50.463Z,15.80
2022-10-03T13:58:05.696Z,15.90
2022-10-03T13:59:24.968Z,15.90
2022-10-03T14:00:43.204Z,15.90
2022-10-03T14:02:00.308Z,15.90
2022-10-03T14:03:22.788Z,16.00
2022-10-03T14:04:44.566Z,16.00
2022-10-03T14:06:10.970Z,16.00
2022-10-03T14:07:24.911Z,16.00
2022-10-03T14:08:43.600Z,16.00
2022-10-03T14:10:07.277Z,16.00
2022-10-03T14:11:35.607Z,16.00
2022-10-03T14:12:59.675Z,16.00
2022-10-03T14:14:44.460Z,16.00
2022-10-03T14:15:53.107Z,16.00
2022-10-03T14:17:02.438Z,16.00
2022-10-03T14:18:19.284Z,16.00
2022-10-03T14:19:33.637Z,16.00
2022-10-03T14:20:41.317Z,16.00
2022-10-03T14:22:04.728Z,16.00
2022-10-03T14:23:16.992Z,16.10
2022-10-03T14:24:37.008Z,16.10
2022-10-03T14:25:44.503Z,16.20
2022-10-03T14:26:50.995Z,16.30
2022-10-03T14:28:02.480Z,16.30
2022-10-03T14:29:12.476Z,16.40
2022-10-03T14:30:18.753Z,16.40
2022-10-03T14:31:34.671Z,16.30
2022-10-03T14:32:48.134Z,16.30
2022-10-03T14:34:00.362Z,16.30
2022-10-03T14:35:14.190Z,16.30
2022-10-03T14:36:31.344Z,16.30
2022-10-03T14:37:41.993Z,16.20
2022-10-03T14:39:05.012Z,16.20
2022-10-03T14:40:17.667Z,16.20
2022-10-03T14:41:25.885Z,16.20
2022-10-03T14:42:40.703Z,16.20
2022-10-03T14:43:49.718Z,16.20
2022-10-03T14:44:57.595Z,16.10
2022-10-03T14:46:02.928Z,16.10
2022-10-03T14:47:10.703Z,16.00
2022-10-03T14:48:18.939Z,16.00
2022-10-03T14:49:52.345Z,15.90
2022-10-03T14:50:54.751Z,15.90
2022-10-03T14:52:02.809Z,15.90
2022-10-03T14:53:13.966Z,15.80
2022-10-03T14:54:20.379Z,15.90
2022-10-03T14:55:30.258Z,15.80
2022-10-03T14:56:42.101Z,15.80
2022-10-03T14:58:09.328Z,15.70
2022-10-03T14:59:14.213Z,15.80
2022-10-03T15:00:25.590Z,15.80
2022-10-03T15:01:29.282Z,15.70
2022-10-03T15:02:36.777Z,15.70
2022-10-03T15:03:43.693Z,15.70
2022-10-03T15:04:47.943Z,15.80
2022-10-03T15:06:03.256Z,15.70
2022-10-03T15:07:07.881Z,15.70
2022-10-03T15:08:15.636Z,15.70
2022-10-03T15:09:22.318Z,15.70
2022-10-03T15:10:28.850Z,15.70
2022-10-03T15:11:35.814Z,15.80
2022-10-03T15:12:40.638Z,15.80
2022-10-03T15:13:48.754Z,15.80
2022-10-03T15:14:59.050Z,15.80
2022-10-03T15:16:07.069Z,15.80
2022-10-03T15:17:19.274Z,15.70
2022-10-03T15:18:24.240Z,15.80
2022-10-03T15:19:31.493Z,15.70
2022-10-03T15:20:38.066Z,15.70
2022-10-03T15:21:44.072Z,15.80
2022-10-03T15:22:53.575Z,15.70
2022-10-03T15:24:03.399Z,15.70
2022-10-03T15:25:24.500Z,15.70
2022-10-03T15:27:49.361Z,15.70
2022-10-03T15:29:28.174Z,15.70
2022-10-03T15:30:41.398Z,15.60
2022-10-03T15:31:48.483Z,15.60
2022-10-03T15:32:53.515Z,15.60
2022-10-03T15:33:57.298Z,15.60
2022-10-03T15:35:03.393Z,15.60
2022-10-03T15:36:12.709Z,15.60
2022-10-03T15:37:19.298Z,15.60
2022-10-03T15:38:26.176Z,15.50
2022-10-03T15:39:34.047Z,15.50
2022-10-03T15:40:39.582Z,15.50
2022-10-03T15:41:52.013Z,15.50
2022-10-03T15:43:09.234Z,15.50
2022-10-03T15:44:18.328Z,15.50
2022-10-03T15:45:27.535Z,15.50
2022-10-03T15:46:34.937Z,15.40
2022-10-03T15:47:45.007Z,15.40
2022-10-03T15:48:53.053Z,15.40
2022-10-03T15:50:00.688Z,15.40
2022-10-03T15:51:07.006Z,15.40
2022-10-03T15:52:18.551Z,15.40
2022-10-03T15:53:36.183Z,15.40
2022-10-03T15:54:40.188Z,15.40
2022-10-03T15:55:49.931Z,15.40
2022-10-03T15:56:56.835Z,15.40
2022-10-03T15:58:03.763Z,15.40
2022-10-03T15:59:09.401Z,15.30
2022-10-03T16:00:22.575Z,15.30
2022-10-03T16:01:29.110Z,15.30
2022-10-03T16:02:35.975Z,15.30
2022-10-03T16:03:44.994Z,15.30
2022-10-03T16:04:48.666Z,15.20
2022-10-03T16:05:59.938Z,15.20
2022-10-03T16:07:09.895Z,15.20
2022-10-03T16:08:20.875Z,15.20
2022-10-03T16:09:31.249Z,15.20
2022-10-03T16:10:38.191Z,15.20
2022-10-03T16:11:50.452Z,15.30
2022-10-03T16:13:02.269Z,15.30
2022-10-03T16:14:14.961Z,15.30
2022-10-03T16:15:21.950Z,15.30
2022-10-03T16:16:34.412Z,15.30
2022-10-03T16:17:43.970Z,15.20
2022-10-03T16:18:57.310Z,15.20
2022-10-03T16:20:06.282Z,15.20
2022-10-03T16:21:15.692Z,15.20
2022-10-03T16:22:26.182Z,15.20
2022-10-03T16:23:34.421Z,15.20
2022-10-03T16:24:44.385Z,15.10
2022-10-03T16:25:51.023Z,15.10
2022-10-03T16:26:56.156Z,15.10
2022-10-03T16:28:04.507Z,15.10
2022-10-03T16:29:14.122Z,15.10
2022-10-03T16:30:22.007Z,15.10
2022-10-03T16:31:28.802Z,15.10
2022-10-03T16:32:32.648Z,15.10
2022-10-03T16:33:38.714Z,15.10
2022-10-03T16:34:44.270Z,15.10
2022-10-03T16:35:51.525Z,15.00
2022-10-03T16:36:54.712Z,15.00
2022-10-03T16:37:58.159Z,15.00
2022-10-03T16:39:04.518Z,15.00
2022-10-03T16:40:18.991Z,15.00
2022-10-03T16:41:25.736Z,15.00
2022-10-03T16:42:39.675Z,15.00
2022-10-03T16:43:55.190Z,15.00
2022-10-03T16:45:02.031Z,15.10
2022-10-03T16:46:09.055Z,15.00
2022-10-03T16:47:12.430Z,15.00
2022-10-03T16:48:39.663Z,14.90
2022-10-03T16:50:05.886Z,14.90
2022-10-03T16:51:18.106Z,15.00
2022-10-03T16:52:24.601Z,14.90
2022-10-03T16:53:28.458Z,14.90
2022-10-03T16:54:34.105Z,14.90
2022-10-03T16:55:45.435Z,14.80
2022-10-03T16:56:52.613Z,14.90
2022-10-03T16:57:57.982Z,14.80
2022-10-03T16:59:06.441Z,14.80
2022-10-03T17:00:17.809Z,14.80
2022-10-03T17:01:32.975Z,14.80
2022-10-03T17:02:37.944Z,14.80
2022-10-03T17:03:46.737Z,14.80
2022-10-03T17:04:52.085Z,14.80
2022-10-03T17:06:03.094Z,14.80
2022-10-03T17:07:14.485Z,14.80
2022-10-03T17:08:40.523Z,14.70
2022-10-03T17:09:47.628Z,14.70
2022-10-03T17:10:54.488Z,14.70
2022-10-03T17:12:00.737Z,14.70
2022-10-03T17:13:06.798Z,14.70
2022-10-03T17:14:10.641Z,14.70
2022-10-03T17:15:21.023Z,14.70
2022-10-03T17:16:34.221Z,14.70
2022-10-03T17:17:46.896Z,14.70
2022-10-03T17:19:03.769Z,14.70
2022-10-03T17:20:14.179Z,14.70